Watts, Oklahoma
Current Conditions -  °F | °C
As of 5:55 AM on Thursday 27 Nov 2014 (Local Time) from KSLG Reporting Station
Clear Clear  
Wind Chill: 25°   Ceiling: Unl
Heat Index: 25°   Visibility: 10mi
Dew Point: 16°   Wind: 3mph
Humidity: 69%   Direction: 10°N
Pressure: 30.46"   Gusts: NA
Location:  36.11°N, 94.57°W
Report Text: KSLG 271155Z AUTO 01003KT 10SM CLR M04/M09 A3046 RMK AO1 11010 21050 52007
Loading
Personal Weather Stations






























Interactive Weather Map New forecast layout! Learn more

10-Day Weather Forecast

Advertisements
Track Severe Weather on mobile